Time;durP1;ratioP1;P1;durP2;ratioP2;P2;SDS_P1;SDS_P2;PMS_P1;PMS_P2;Temp;Humidity;BMP_temperature;BMP_pressure;BME280_temperature;BME280_humidity;BME280_pressure;Samples;Min_cycle;Max_cycle;Signal;HPM_P1;HPM_P2
2022/08/29 00:01:28;;;;;;;0.00;0.00;;;19.10;99.90;;;;;;5037097;28;20450;-73
2022/08/29 00:03:57;;;;;;;0.00;0.00;;;19.10;99.90;;;;;;5037780;28;20705;-74
2022/08/29 00:06:25;;;;;;;0.00;0.00;;;19.10;99.90;;;;;;5037692;28;20448;-73
2022/08/29 00:08:53;;;;;;;0.00;0.00;;;19.10;99.90;;;;;;5037675;28;20459;-74
2022/08/29 00:11:22;;;;;;;0.00;0.00;;;19.20;99.90;;;;;;5037836;28;20451;-74
2022/08/29 00:13:50;;;;;;;0.00;0.00;;;19.10;99.90;;;;;;5037839;28;20479;-73
2022/08/29 00:16:18;;;;;;;0.00;0.00;;;19.10;99.90;;;;;;5037616;28;20457;-73
2022/08/29 00:18:46;;;;;;;0.00;0.00;;;19.10;99.90;;;;;;5037727;28;20558;-73
2022/08/29 00:21:13;;;;;;;0.00;0.00;;;19.10;99.90;;;;;;5037229;28;20438;-73
2022/08/29 00:23:43;;;;;;;0.00;0.00;;;19.10;99.90;;;;;;5037496;28;20537;-73
2022/08/29 00:26:12;;;;;;;0.00;0.00;;;19.10;99.90;;;;;;5037556;28;20447;-73
2022/08/29 00:28:41;;;;;;;0.00;0.00;;;19.10;99.90;;;;;;5037295;28;20628;-73
2022/08/29 00:31:08;;;;;;;0.00;0.00;;;19.10;99.90;;;;;;5037440;28;20936;-73
2022/08/29 00:33:37;;;;;;;0.00;0.00;;;19.10;99.90;;;;;;5037589;28;20742;-73
2022/08/29 00:36:06;;;;;;;0.00;0.00;;;19.10;99.90;;;;;;5037490;28;20444;-73
2022/08/29 00:38:35;;;;;;;0.00;0.00;;;19.10;99.90;;;;;;5037157;28;20543;-75
2022/08/29 00:41:03;;;;;;;0.00;0.00;;;19.10;99.90;;;;;;5037165;28;20440;-75
2022/08/29 00:43:34;;;;;;;0.00;0.00;;;19.10;99.90;;;;;;5037620;28;20970;-75
2022/08/29 00:46:17;;;;;;;0.00;0.00;;;19.20;99.90;;;;;;5037396;28;20439;-75
2022/08/29 00:48:55;;;;;;;0.00;0.00;;;19.20;99.90;;;;;;5037347;28;20608;-76
2022/08/29 00:51:24;;;;;;;0.00;0.00;;;19.20;99.90;;;;;;5037392;28;20450;-74
2022/08/29 00:53:59;;;;;;;0.00;0.00;;;19.20;99.90;;;;;;5037245;28;20487;-75
2022/08/29 00:56:28;;;;;;;0.00;0.00;;;19.20;99.90;;;;;;5037407;28;21037;-75
2022/08/29 00:58:59;;;;;;;0.00;0.00;;;19.30;99.90;;;;;;5037109;28;20482;-75
2022/08/29 01:01:28;;;;;;;0.00;0.00;;;19.30;99.90;;;;;;5037477;28;20432;-75
2022/08/29 01:03:56;;;;;;;0.00;0.00;;;19.30;99.90;;;;;;5037040;28;20868;-75
2022/08/29 01:06:26;;;;;;;0.00;0.00;;;19.30;99.90;;;;;;5037370;28;20673;-75
2022/08/29 01:08:55;;;;;;;0.00;0.00;;;19.30;99.90;;;;;;5037090;28;20452;-75
2022/08/29 01:14:14;;;;;;;0.00;0.00;;;19.30;99.90;;;;;;5040046;28;20482;-73
2022/08/29 01:16:43;;;;;;;0.00;0.00;;;19.30;99.90;;;;;;5041071;28;20996;-73
2022/08/29 01:19:20;;;;;;;0.00;0.00;;;19.30;99.90;;;;;;5042448;28;20473;-73
2022/08/29 01:21:55;;;;;;;0.00;0.00;;;19.30;99.90;;;;;;5042551;28;20454;-73
2022/08/29 01:24:34;;;;;;;0.00;0.00;;;19.30;99.90;;;;;;5041193;28;20432;-73
2022/08/29 01:27:03;;;;;;;0.00;0.00;;;19.30;99.90;;;;;;5041460;28;20461;-73
2022/08/29 01:29:30;;;;;;;0.00;0.00;;;19.40;99.90;;;;;;5040643;28;21034;-73
2022/08/29 01:31:58;;;;;;;0.00;0.00;;;19.40;99.90;;;;;;5041016;28;20463;-75
2022/08/29 01:34:28;;;;;;;0.00;0.00;;;19.30;99.90;;;;;;5040611;28;20479;-75
2022/08/29 01:36:58;;;;;;;0.00;0.00;;;19.30;99.90;;;;;;5041162;28;20446;-75
2022/08/29 01:39:30;;;;;;;0.00;0.00;;;19.30;99.90;;;;;;5040392;28;20494;-74
2022/08/29 01:42:00;;;;;;;0.00;0.00;;;19.40;99.90;;;;;;5041106;28;20444;-74
2022/08/29 01:44:28;;;;;;;0.00;0.00;;;19.30;99.90;;;;;;5040685;28;20432;-73
2022/08/29 01:46:58;;;;;;;0.00;0.00;;;19.30;99.90;;;;;;5040627;28;20440;-73
2022/08/29 01:49:30;;;;;;;0.00;0.00;;;19.40;99.90;;;;;;5040637;28;20539;-73
2022/08/29 01:51:58;;;;;;;0.00;0.00;;;19.40;99.90;;;;;;5040598;28;20446;-73
2022/08/29 01:54:27;;;;;;;0.00;0.00;;;19.40;99.90;;;;;;5040262;28;21194;-73
2022/08/29 01:56:55;;;;;;;0.00;0.00;;;19.40;99.90;;;;;;5040389;28;20428;-73
2022/08/29 01:59:26;;;;;;;0.00;0.00;;;19.40;99.90;;;;;;5041329;28;20466;-73
2022/08/29 02:02:00;;;;;;;0.00;0.00;;;19.40;99.90;;;;;;5041022;28;20959;-71
2022/08/29 02:04:28;;;;;;;0.00;0.00;;;19.40;99.90;;;;;;5040233;28;21083;-74
2022/08/29 02:06:57;;;;;;;0.00;0.00;;;19.40;99.90;;;;;;5040280;28;20444;-73
2022/08/29 02:09:25;;;;;;;0.00;0.00;;;19.30;99.90;;;;;;5039968;28;20506;-74
2022/08/29 02:11:55;;;;;;;0.00;0.00;;;19.30;99.90;;;;;;5040521;28;20447;-74
2022/08/29 02:14:23;;;;;;;0.00;0.00;;;19.30;99.90;;;;;;5040287;28;20600;-73
2022/08/29 02:20:06;;;;;;;0.00;0.00;;;19.30;99.90;;;;;;5888789;23;21684;-76
2022/08/29 02:22:34;;;;;;;0.00;0.00;;;19.30;99.90;;;;;;5062147;28;20454;-74
2022/08/29 02:25:40;;;;;;;0.00;0.00;;;19.30;99.90;;;;;;5059315;28;20489;-76
2022/08/29 02:27:53;;;;;;;0.00;0.00;;;19.30;99.90;;;;;;5059991;28;20546;-75
2022/08/29 02:30:21;;;;;;;0.00;0.00;;;19.30;99.90;;;;;;5059568;28;20473;-74
2022/08/29 02:32:49;;;;;;;0.00;0.00;;;19.40;99.90;;;;;;5059621;28;20471;-74
2022/08/29 02:35:18;;;;;;;0.00;0.00;;;19.40;99.90;;;;;;5059621;28;20485;-76
2022/08/29 02:37:47;;;;;;;0.00;0.00;;;19.40;99.90;;;;;;5059904;28;20451;-75
2022/08/29 02:40:15;;;;;;;0.00;0.00;;;19.40;99.90;;;;;;5059513;28;20870;-75
2022/08/29 02:42:43;;;;;;;0.00;0.00;;;19.30;99.90;;;;;;5059753;28;20527;-75
2022/08/29 02:45:12;;;;;;;0.00;0.00;;;19.40;99.90;;;;;;5059980;28;20448;-76
2022/08/29 02:47:40;;;;;;;0.00;0.00;;;19.30;99.90;;;;;;5060311;28;20814;-76
2022/08/29 02:50:10;;;;;;;0.00;0.00;;;19.40;99.90;;;;;;5060869;28;20459;-75
2022/08/29 02:52:39;;;;;;;0.00;0.00;;;19.40;99.90;;;;;;5059404;28;20670;-75
2022/08/29 02:55:08;;;;;;;0.00;0.00;;;19.40;99.90;;;;;;5059499;28;20867;-76
2022/08/29 02:57:36;;;;;;;0.00;0.00;;;19.30;99.90;;;;;;5059182;28;20434;-74
2022/08/29 03:00:05;;;;;;;0.00;0.00;;;19.10;99.90;;;;;;5058592;28;20467;-75
2022/08/29 03:02:34;;;;;;;0.00;0.00;;;19.10;99.90;;;;;;5059095;28;20447;-76
2022/08/29 03:05:02;;;;;;;0.00;0.00;;;19.00;99.90;;;;;;5059312;28;20730;-75
2022/08/29 03:07:30;;;;;;;0.00;0.00;;;19.00;99.90;;;;;;5058855;28;20522;-75
2022/08/29 03:09:58;;;;;;;0.00;0.00;;;19.00;99.90;;;;;;5059017;28;20473;-74
2022/08/29 03:12:26;;;;;;;0.00;0.00;;;18.90;99.90;;;;;;5058758;28;20448;-74
2022/08/29 03:14:56;;;;;;;0.00;0.00;;;18.90;99.90;;;;;;5058840;28;20479;-76
2022/08/29 03:17:24;;;;;;;0.00;0.00;;;18.80;99.90;;;;;;5058745;28;20773;-75
2022/08/29 03:19:53;;;;;;;0.00;0.00;;;18.70;99.90;;;;;;5058814;28;20451;-75
2022/08/29 03:22:21;;;;;;;0.00;0.00;;;18.70;99.90;;;;;;5058514;28;20451;-75
2022/08/29 03:24:48;;;;;;;0.00;0.00;;;18.60;99.90;;;;;;5058210;28;21056;-74
2022/08/29 03:27:17;;;;;;;0.00;0.00;;;18.60;99.90;;;;;;5058380;28;20833;-75
2022/08/29 03:29:46;;;;;;;0.00;0.00;;;18.60;99.90;;;;;;5058279;28;20560;-75
2022/08/29 03:32:13;;;;;;;0.00;0.00;;;18.60;99.90;;;;;;5058584;28;20913;-75
2022/08/29 03:34:41;;;;;;;0.00;0.00;;;18.60;99.90;;;;;;5058502;28;20459;-74
2022/08/29 03:37:10;;;;;;;0.00;0.00;;;18.50;99.90;;;;;;5057679;28;20569;-75
2022/08/29 03:39:38;;;;;;;0.00;0.00;;;18.50;99.90;;;;;;5057961;28;20462;-75
2022/08/29 03:42:07;;;;;;;0.00;0.00;;;18.40;99.90;;;;;;5058048;28;21013;-74
2022/08/29 03:44:37;;;;;;;0.00;0.00;;;18.40;99.90;;;;;;5058233;28;20726;-75
2022/08/29 03:47:06;;;;;;;0.00;0.00;;;18.30;99.90;;;;;;5058322;28;20784;-76
2022/08/29 03:49:34;;;;;;;0.00;0.00;;;18.30;99.90;;;;;;5058029;28;20560;-75
2022/08/29 03:52:03;;;;;;;0.00;0.00;;;18.30;99.90;;;;;;5058085;28;20855;-76
2022/08/29 03:54:33;;;;;;;0.00;0.00;;;18.40;99.90;;;;;;5058469;28;20430;-75
2022/08/29 03:57:01;;;;;;;0.00;0.00;;;18.50;99.90;;;;;;5058945;28;20473;-76
2022/08/29 03:59:30;;;;;;;0.00;0.00;;;18.50;99.90;;;;;;5058532;28;21010;-75
2022/08/29 04:01:58;;;;;;;0.00;0.00;;;18.60;99.90;;;;;;5058512;28;20457;-75
2022/08/29 04:07:13;;;;;;;0.00;0.00;;;18.60;99.90;;;;;;5060688;28;20435;-75
2022/08/29 04:09:43;;;;;;;0.00;0.00;;;18.60;99.90;;;;;;5060301;28;20459;-74
2022/08/29 04:12:12;;;;;;;0.00;0.00;;;18.60;99.90;;;;;;5058701;28;20441;-74
2022/08/29 04:14:41;;;;;;;0.00;0.00;;;18.60;99.90;;;;;;5058084;28;20609;-74
2022/08/29 04:17:11;;;;;;;0.00;0.00;;;18.60;99.90;;;;;;5057524;28;20481;-73
2022/08/29 04:19:38;;;;;;;0.00;0.00;;;18.60;99.90;;;;;;5057708;28;21023;-74
2022/08/29 04:22:06;;;;;;;0.00;0.00;;;18.60;99.90;;;;;;5057870;28;20456;-73
2022/08/29 04:24:35;;;;;;;0.00;0.00;;;18.70;99.90;;;;;;5058155;28;20729;-71
2022/08/29 04:27:06;;;;;;;0.00;0.00;;;18.70;99.90;;;;;;5051296;28;20736;-70
2022/08/29 04:29:37;;;;;;;0.00;0.00;;;18.70;99.90;;;;;;5043163;28;20467;-71
2022/08/29 04:32:05;;;;;;;0.00;0.00;;;18.70;99.90;;;;;;5037727;28;20457;-71
2022/08/29 04:34:33;;;;;;;0.00;0.00;;;18.80;99.90;;;;;;5037844;28;20448;-71
2022/08/29 04:37:00;;;;;;;0.00;0.00;;;18.60;99.90;;;;;;5037584;28;21025;-70
2022/08/29 04:39:28;;;;;;;0.00;0.00;;;18.60;99.90;;;;;;5037380;28;20475;-71
2022/08/29 04:41:56;;;;;;;0.00;0.00;;;18.60;99.90;;;;;;5037849;28;20440;-71
2022/08/29 04:44:25;;;;;;;0.00;0.00;;;18.50;99.90;;;;;;5037767;28;20456;-70
2022/08/29 04:46:53;;;;;;;0.00;0.00;;;18.40;99.90;;;;;;5038210;28;20533;-70
2022/08/29 04:49:21;;;;;;;0.00;0.00;;;18.40;99.90;;;;;;5041917;28;20480;-70
2022/08/29 04:51:52;;;;;;;0.00;0.00;;;18.30;99.90;;;;;;5041674;28;20442;-70
2022/08/29 04:54:20;;;;;;;0.00;0.00;;;18.30;99.90;;;;;;5040985;28;20442;-69
2022/08/29 04:56:47;;;;;;;0.00;0.00;;;18.30;99.90;;;;;;5058387;28;20491;-70
2022/08/29 04:59:16;;;;;;;0.00;0.00;;;18.40;99.90;;;;;;5061180;28;20460;-69
2022/08/29 05:01:46;;;;;;;0.00;0.00;;;18.40;99.90;;;;;;5060825;28;20451;-70
2022/08/29 05:04:14;;;;;;;0.00;0.00;;;18.40;99.90;;;;;;5062247;28;20441;-70
2022/08/29 05:06:42;;;;;;;0.00;0.00;;;18.40;99.90;;;;;;5049927;28;20535;-69
2022/08/29 05:09:10;;;;;;;0.00;0.00;;;18.30;99.90;;;;;;5041593;28;20459;-69
2022/08/29 05:11:39;;;;;;;0.00;0.00;;;18.30;99.90;;;;;;5052120;28;20447;-69
2022/08/29 05:14:07;;;;;;;0.00;0.00;;;18.30;99.90;;;;;;5041642;28;20441;-69
2022/08/29 05:16:36;;;;;;;0.00;0.00;;;18.30;99.90;;;;;;5047316;28;20474;-69
2022/08/29 05:19:06;;;;;;;0.00;0.00;;;18.30;99.90;;;;;;5045707;28;20473;-70
2022/08/29 05:21:38;;;;;;;0.00;0.00;;;18.40;99.90;;;;;;5040503;28;20446;-69
2022/08/29 05:24:09;;;;;;;0.00;0.00;;;18.30;99.90;;;;;;5040613;28;20452;-70
2022/08/29 05:26:39;;;;;;;0.00;0.00;;;18.40;99.90;;;;;;5040776;28;20783;-72
2022/08/29 05:29:09;;;;;;;0.00;0.00;;;18.40;99.90;;;;;;5047392;28;20858;-78
2022/08/29 05:31:39;;;;;;;0.00;0.00;;;18.40;99.90;;;;;;5052549;28;20503;-75
2022/08/29 05:34:11;;;;;;;0.00;0.00;;;18.40;99.90;;;;;;5061807;28;20449;-75
2022/08/29 05:36:59;;;;;;;0.00;0.00;;;18.50;99.90;;;;;;5059945;28;20470;-76
2022/08/29 05:39:26;;;;;;;0.00;0.00;;;18.50;99.90;;;;;;5059571;28;20476;-75
2022/08/29 05:41:55;;;;;;;0.00;0.00;;;18.50;99.90;;;;;;5052942;28;20596;-76
2022/08/29 05:44:23;;;;;;;0.00;0.00;;;18.50;99.90;;;;;;5039850;28;21085;-74
2022/08/29 05:46:50;;;;;;;0.00;0.00;;;18.40;99.90;;;;;;5039783;28;20560;-74
2022/08/29 05:49:20;;;;;;;0.00;0.00;;;18.30;99.90;;;;;;5046307;28;20693;-76
2022/08/29 05:51:48;;;;;;;0.00;0.00;;;18.30;99.90;;;;;;5050736;28;20467;-74
2022/08/29 05:54:16;;;;;;;0.00;0.00;;;18.30;99.90;;;;;;5044585;28;20509;-76
2022/08/29 05:56:43;;;;;;;0.00;0.00;;;18.40;99.90;;;;;;5050079;28;21103;-75
2022/08/29 05:59:12;;;;;;;0.00;0.00;;;18.40;99.90;;;;;;5058620;28;20829;-75
2022/08/29 06:01:41;;;;;;;0.00;0.00;;;18.50;99.90;;;;;;5048829;28;20455;-75
2022/08/29 06:04:09;;;;;;;0.00;0.00;;;18.60;99.90;;;;;;5048820;28;20810;-75
2022/08/29 06:06:40;;;;;;;0.00;0.00;;;18.60;99.90;;;;;;5049570;28;21339;-75
2022/08/29 06:09:09;;;;;;;0.00;0.00;;;18.70;99.90;;;;;;5039905;28;20550;-75
2022/08/29 06:11:37;;;;;;;0.00;0.00;;;18.80;99.90;;;;;;5040512;28;20448;-75
2022/08/29 06:14:05;;;;;;;0.00;0.00;;;19.00;99.90;;;;;;5051692;28;20451;-74
2022/08/29 06:16:34;;;;;;;0.00;0.00;;;19.10;99.90;;;;;;5071493;28;20715;-78
2022/08/29 06:19:01;;;;;;;0.00;0.00;;;19.20;99.90;;;;;;5061001;28;20796;-77
2022/08/29 06:21:29;;;;;;;0.00;0.00;;;19.40;99.90;;;;;;5048292;28;20561;-77
2022/08/29 06:23:59;;;;;;;0.00;0.00;;;19.60;99.90;;;;;;5063727;28;20457;-76
2022/08/29 06:26:26;;;;;;;0.00;0.00;;;19.60;99.90;;;;;;5063992;28;20463;-75
2022/08/29 06:28:54;;;;;;;0.00;0.00;;;19.60;99.90;;;;;;5046141;28;20987;-75
2022/08/29 06:31:26;;;;;;;0.00;0.00;;;19.50;99.90;;;;;;5045754;28;20549;-75
2022/08/29 06:33:57;;;;;;;0.00;0.00;;;19.40;99.90;;;;;;5058093;28;20961;-75
2022/08/29 06:36:26;;;;;;;0.00;0.00;;;19.30;99.90;;;;;;5059106;28;20972;-75
2022/08/29 06:38:56;;;;;;;0.00;0.00;;;19.10;99.90;;;;;;5059073;28;20459;-75
2022/08/29 06:41:26;;;;;;;0.00;0.00;;;19.00;99.90;;;;;;5059088;28;20427;-76
2022/08/29 06:43:55;;;;;;;0.00;0.00;;;19.00;99.90;;;;;;5059965;28;20553;-74
2022/08/29 06:46:30;;;;;;;0.00;0.00;;;19.00;99.90;;;;;;5059454;28;20465;-75
2022/08/29 06:49:00;;;;;;;0.00;0.00;;;19.00;99.90;;;;;;5058799;28;21002;-75
2022/08/29 06:51:31;;;;;;;0.00;0.00;;;19.10;99.90;;;;;;5051468;28;20467;-74
2022/08/29 06:53:59;;;;;;;0.00;0.00;;;19.10;99.90;;;;;;5038883;28;21035;-75
2022/08/29 06:56:30;;;;;;;0.00;0.00;;;19.00;99.90;;;;;;5038972;28;20435;-75
2022/08/29 06:58:58;;;;;;;0.00;0.00;;;19.00;99.90;;;;;;5038433;28;20479;-75
2022/08/29 07:01:26;;;;;;;0.00;0.00;;;18.90;99.90;;;;;;5038634;28;20531;-75
2022/08/29 07:03:56;;;;;;;0.00;0.00;;;18.80;99.90;;;;;;5039542;28;20821;-72
2022/08/29 07:06:24;;;;;;;0.00;0.00;;;18.90;99.90;;;;;;5043872;28;20903;-72
2022/08/29 07:08:53;;;;;;;0.00;0.00;;;19.00;99.90;;;;;;5053082;28;20676;-72
2022/08/29 07:11:23;;;;;;;0.00;0.00;;;19.10;99.90;;;;;;5048059;28;20510;-71
2022/08/29 07:13:55;;;;;;;0.00;0.00;;;19.30;99.90;;;;;;5038752;28;20436;-79
2022/08/29 07:16:23;;;;;;;0.00;0.00;;;19.40;99.90;;;;;;5040012;28;20454;-75
2022/08/29 07:18:53;;;;;;;0.00;0.00;;;19.30;99.90;;;;;;5044491;28;20971;-71
2022/08/29 07:21:23;;;;;;;0.00;0.00;;;19.30;99.90;;;;;;5041946;28;20436;-75
2022/08/29 07:23:52;;;;;;;0.00;0.00;;;19.40;99.90;;;;;;5051881;28;20455;-74
2022/08/29 07:26:22;;;;;;;0.00;0.00;;;19.40;99.90;;;;;;5052118;28;20530;-74
2022/08/29 07:28:54;;;;;;;0.00;0.00;;;19.40;99.90;;;;;;5047634;28;20897;-75
2022/08/29 07:31:23;;;;;;;0.00;0.00;;;19.40;99.90;;;;;;5043211;28;20547;-75
2022/08/29 07:33:53;;;;;;;0.00;0.00;;;19.30;99.90;;;;;;5046588;28;20471;-74
2022/08/29 07:36:30;;;;;;;0.00;0.00;;;19.20;99.90;;;;;;5058308;28;20465;-72
2022/08/29 07:38:58;;;;;;;0.00;0.00;;;19.20;99.90;;;;;;5057441;28;20774;-72
2022/08/29 07:41:27;;;;;;;0.00;0.00;;;19.30;99.90;;;;;;5044404;28;20477;-72
2022/08/29 07:43:57;;;;;;;0.00;0.00;;;19.40;99.90;;;;;;5037790;28;20746;-72
2022/08/29 07:46:25;;;;;;;0.00;0.00;;;19.60;99.90;;;;;;5037961;28;20446;-72
2022/08/29 07:48:53;;;;;;;0.00;0.00;;;19.70;99.90;;;;;;5047584;28;20992;-72
2022/08/29 07:51:23;;;;;;;0.00;0.00;;;20.00;99.90;;;;;;5052367;28;20728;-72
2022/08/29 07:53:52;;;;;;;0.00;0.00;;;20.20;99.90;;;;;;5037885;28;20519;-73
2022/08/29 07:56:22;;;;;;;0.00;0.00;;;20.40;99.90;;;;;;5037719;28;20846;-72
2022/08/29 07:58:52;;;;;;;0.00;0.00;;;20.60;99.90;;;;;;5037865;28;20558;-72
2022/08/29 08:01:21;;;;;;;0.00;0.00;;;20.70;99.90;;;;;;5040311;28;20439;-72
2022/08/29 08:03:50;;;;;;;0.00;0.00;;;20.70;99.90;;;;;;5042333;28;20463;-73
2022/08/29 08:06:19;;;;;;;0.00;0.00;;;20.70;99.90;;;;;;5057524;28;20438;-73
2022/08/29 08:08:48;;;;;;;0.00;0.00;;;20.90;99.90;;;;;;5058390;28;20547;-72
2022/08/29 08:11:18;;;;;;;0.00;0.00;;;20.90;99.90;;;;;;5055159;28;20546;-72
2022/08/29 08:13:46;;;;;;;0.00;0.00;;;21.00;99.90;;;;;;5050132;28;20566;-73
2022/08/29 08:16:19;;;;;;;0.00;0.00;;;21.10;99.90;;;;;;5058244;28;20450;-76
2022/08/29 08:18:49;;;;;;;0.00;0.00;;;21.30;99.90;;;;;;5045231;28;20488;-72
2022/08/29 08:21:18;;;;;;;0.00;0.00;;;21.40;99.90;;;;;;5046207;28;20566;-73
2022/08/29 08:23:48;;;;;;;0.00;0.00;;;21.50;99.90;;;;;;5052510;28;20574;-72
2022/08/29 08:26:16;;;;;;;0.00;0.00;;;21.70;99.90;;;;;;5051263;28;20448;-72
2022/08/29 08:28:47;;;;;;;0.00;0.00;;;21.70;99.90;;;;;;5052567;28;20467;-72
2022/08/29 08:31:16;;;;;;;0.00;0.00;;;21.70;99.90;;;;;;5056356;28;20558;-72
2022/08/29 08:33:48;;;;;;;0.00;0.00;;;21.80;99.90;;;;;;5052594;28;21077;-71
2022/08/29 08:36:19;;;;;;;0.00;0.00;;;21.80;99.90;;;;;;5056435;28;20439;-73
2022/08/29 08:38:51;;;;;;;0.00;0.00;;;21.80;99.90;;;;;;5061647;28;20562;-73
2022/08/29 08:41:35;;;;;;;0.00;0.00;;;21.80;99.90;;;;;;5056984;28;20455;-72
2022/08/29 08:44:07;;;;;;;0.00;0.00;;;21.80;99.90;;;;;;5050359;28;20719;-75
2022/08/29 08:46:39;;;;;;;0.00;0.00;;;21.80;99.90;;;;;;5062591;28;20677;-74
2022/08/29 08:49:12;;;;;;;0.00;0.00;;;21.80;99.90;;;;;;5058024;28;20829;-75
2022/08/29 08:51:44;;;;;;;0.00;0.00;;;21.70;99.90;;;;;;5042870;28;20814;-73
2022/08/29 08:54:22;;;;;;;0.00;0.00;;;21.70;99.90;;;;;;5058516;28;20444;-77
2022/08/29 08:56:56;;;;;;;0.00;0.00;;;21.60;99.90;;;;;;5058340;28;20470;-75
2022/08/29 08:59:38;;;;;;;0.00;0.00;;;21.50;99.90;;;;;;5059795;28;20562;-74
2022/08/29 09:02:17;;;;;;;0.00;0.00;;;21.60;99.90;;;;;;5054972;28;20946;-76
2022/08/29 09:05:02;;;;;;;0.00;0.00;;;21.70;99.90;;;;;;5042004;28;20535;-76
2022/08/29 09:07:49;;;;;;;0.00;0.00;;;21.80;99.90;;;;;;5042043;28;20479;-73
2022/08/29 09:10:30;;;;;;;0.00;0.00;;;22.10;99.90;;;;;;5042744;28;20990;-74
2022/08/29 09:13:05;;;;;;;0.00;0.00;;;22.30;99.90;;;;;;5061472;28;21139;-74
2022/08/29 09:15:40;;;;;;;0.00;0.00;;;22.40;99.90;;;;;;5041126;28;20439;-74
2022/08/29 09:18:11;;;;;;;0.00;0.00;;;22.40;99.90;;;;;;5041153;28;20486;-74
2022/08/29 09:20:42;;;;;;;0.00;0.00;;;22.40;99.90;;;;;;5040390;28;20437;-74
2022/08/29 09:23:19;;;;;;;0.00;0.00;;;22.50;99.90;;;;;;5040370;28;20633;-73
2022/08/29 09:25:47;;;;;;;0.00;0.00;;;22.60;99.90;;;;;;5041220;28;20959;-75
2022/08/29 09:28:16;;;;;;;0.00;0.00;;;22.50;99.90;;;;;;5046492;28;20452;-75
2022/08/29 09:31:05;;;;;;;0.00;0.00;;;22.60;99.90;;;;;;5050966;28;20450;-75
2022/08/29 09:33:42;;;;;;;0.00;0.00;;;22.50;99.90;;;;;;5042266;28;20446;-74
2022/08/29 09:36:15;;;;;;;0.00;0.00;;;22.60;99.90;;;;;;5060722;28;20480;-74
2022/08/29 09:38:43;;;;;;;0.00;0.00;;;22.50;99.90;;;;;;5061082;28;21016;-70
2022/08/29 09:41:14;;;;;;;0.00;0.00;;;22.50;99.90;;;;;;5060419;28;20461;-71
2022/08/29 09:43:51;;;;;;;0.00;0.00;;;22.50;99.90;;;;;;5055321;28;20464;-73
2022/08/29 09:46:22;;;;;;;0.00;0.00;;;22.50;99.90;;;;;;5060210;28;20457;-72
2022/08/29 09:49:11;;;;;;;0.00;0.00;;;22.60;99.90;;;;;;5060233;28;20514;-72
2022/08/29 09:51:44;;;;;;;0.00;0.00;;;22.60;99.90;;;;;;5052991;28;20447;-74
2022/08/29 09:54:17;;;;;;;0.00;0.00;;;22.60;99.90;;;;;;5040350;28;20435;-70
2022/08/29 09:56:54;;;;;;;0.00;0.00;;;22.60;99.90;;;;;;5040501;28;20980;-71
2022/08/29 09:59:27;;;;;;;0.00;0.00;;;22.60;99.90;;;;;;5051731;28;20636;-72
2022/08/29 10:02:22;;;;;;;0.00;0.00;;;22.60;99.90;;;;;;5059727;28;20837;-73
2022/08/29 10:04:52;;;;;;;0.00;0.00;;;22.60;99.90;;;;;;5059190;28;20472;-72
2022/08/29 10:07:24;;;;;;;0.00;0.00;;;22.60;99.90;;;;;;5060186;28;20788;-73
2022/08/29 10:10:02;;;;;;;0.00;0.00;;;22.70;99.90;;;;;;5058923;28;20655;-72
2022/08/29 10:12:40;;;;;;;0.00;0.00;;;22.70;99.90;;;;;;5051192;28;20965;-73
2022/08/29 10:15:15;;;;;;;0.00;0.00;;;22.70;99.90;;;;;;5039239;28;20444;-75
2022/08/29 10:18:23;;;;;;;0.00;0.00;;;22.70;99.90;;;;;;5042359;28;20454;-75
2022/08/29 10:20:58;;;;;;;0.00;0.00;;;22.80;99.90;;;;;;5039493;28;20824;-73
2022/08/29 10:23:37;;;;;;;0.00;0.00;;;22.90;99.90;;;;;;5042817;28;20543;-71
2022/08/29 10:26:14;;;;;;;0.00;0.00;;;22.80;99.90;;;;;;5042239;28;20550;-73
2022/08/29 10:28:52;;;;;;;0.00;0.00;;;22.80;99.90;;;;;;5047749;28;20528;-74
2022/08/29 10:31:30;;;;;;;0.00;0.00;;;22.90;99.90;;;;;;5058439;28;20517;-73
2022/08/29 10:34:14;;;;;;;0.00;0.00;;;23.00;99.90;;;;;;5039456;28;20437;-74
2022/08/29 10:36:51;;;;;;;0.00;0.00;;;23.10;99.90;;;;;;5044774;28;20452;-73
2022/08/29 10:39:33;;;;;;;0.00;0.00;;;23.40;99.90;;;;;;5040037;28;20518;-73
2022/08/29 10:42:20;;;;;;;0.00;0.00;;;23.50;99.90;;;;;;5052575;28;20533;-71
2022/08/29 10:44:59;;;;;;;0.00;0.00;;;23.50;99.90;;;;;;5050136;28;20441;-73
2022/08/29 10:47:33;;;;;;;0.00;0.00;;;23.60;99.90;;;;;;5049943;28;20538;-72
2022/08/29 10:50:15;;;;;;;0.00;0.00;;;23.60;99.90;;;;;;5048094;28;20844;-74
2022/08/29 10:53:10;;;;;;;0.00;0.00;;;23.50;99.90;;;;;;5048344;28;20433;-73
2022/08/29 10:55:48;;;;;;;0.00;0.00;;;23.40;99.90;;;;;;5048336;28;20530;-73
2022/08/29 10:58:36;;;;;;;0.00;0.00;;;23.20;99.90;;;;;;5048372;28;20437;-73
2022/08/29 11:01:12;;;;;;;0.00;0.00;;;23.10;99.90;;;;;;5049894;28;21132;-73
2022/08/29 11:03:47;;;;;;;0.00;0.00;;;23.00;99.90;;;;;;5050542;28;20435;-73
2022/08/29 11:06:20;;;;;;;0.00;0.00;;;22.90;99.90;;;;;;5050315;28;20454;-73
2022/08/29 11:08:54;;;;;;;0.00;0.00;;;22.90;99.90;;;;;;5051044;28;20515;-74
2022/08/29 11:11:27;;;;;;;0.00;0.00;;;22.80;99.90;;;;;;5049719;28;20537;-73
2022/08/29 11:14:00;;;;;;;0.00;0.00;;;22.90;99.90;;;;;;5049631;28;20442;-74
2022/08/29 11:16:37;;;;;;;0.00;0.00;;;23.00;99.90;;;;;;5047760;28;20457;-73
2022/08/29 11:19:12;;;;;;;0.00;0.00;;;23.10;99.90;;;;;;5048127;28;20479;-72
2022/08/29 11:21:44;;;;;;;0.00;0.00;;;23.30;99.90;;;;;;5047496;28;20459;-73
2022/08/29 11:24:14;;;;;;;0.00;0.00;;;23.40;99.90;;;;;;5049895;28;21476;-73
2022/08/29 11:26:53;;;;;;;0.00;0.00;;;23.40;99.90;;;;;;5047408;28;20455;-73
2022/08/29 11:29:28;;;;;;;0.00;0.00;;;23.20;99.90;;;;;;5047249;28;20455;-74
2022/08/29 11:32:04;;;;;;;0.00;0.00;;;23.20;99.90;;;;;;5046738;28;21046;-73
2022/08/29 11:34:45;;;;;;;0.00;0.00;;;23.10;99.90;;;;;;5046218;28;20467;-74
2022/08/29 11:37:39;;;;;;;0.00;0.00;;;23.00;99.90;;;;;;5046390;28;20431;-73
2022/08/29 11:40:14;;;;;;;0.00;0.00;;;22.90;99.90;;;;;;5038701;28;20488;-72
2022/08/29 11:42:47;;;;;;;0.00;0.00;;;23.00;99.90;;;;;;5047051;28;20446;-73
2022/08/29 11:45:25;;;;;;;0.00;0.00;;;23.10;99.90;;;;;;5046200;28;20797;-73
2022/08/29 11:48:28;;;;;;;0.00;0.00;;;23.20;99.90;;;;;;5046463;28;20444;-73
2022/08/29 11:50:57;;;;;;;0.00;0.00;;;23.30;99.90;;;;;;5048430;28;20435;-72
2022/08/29 11:53:33;;;;;;;0.00;0.00;;;23.40;99.90;;;;;;5048146;28;20463;-74
2022/08/29 11:56:24;;;;;;;0.00;0.00;;;23.50;99.90;;;;;;5048069;28;20435;-72
2022/08/29 11:58:58;;;;;;;0.00;0.00;;;23.50;99.90;;;;;;5039192;28;20465;-71
2022/08/29 12:01:56;;;;;;;0.00;0.00;;;23.40;99.90;;;;;;5047134;28;21024;-71
2022/08/29 12:04:50;;;;;;;0.00;0.00;;;23.20;99.90;;;;;;5046787;28;20430;-70
2022/08/29 12:07:20;;;;;;;0.00;0.00;;;23.00;99.90;;;;;;5037404;28;20441;-70
2022/08/29 12:09:52;;;;;;;0.00;0.00;;;22.90;99.90;;;;;;5036857;28;20465;-70
2022/08/29 12:12:46;;;;;;;0.00;0.00;;;22.90;99.90;;;;;;5037346;28;20447;-70
2022/08/29 12:15:51;;;;;;;0.00;0.00;;;23.00;99.90;;;;;;5037270;28;20842;-70
2022/08/29 12:18:48;;;;;;;0.00;0.00;;;23.10;99.90;;;;;;5036616;28;20494;-71
2022/08/29 12:21:47;;;;;;;0.00;0.00;;;23.10;99.90;;;;;;5036970;28;20878;-71
2022/08/29 12:24:46;;;;;;;0.00;0.00;;;23.10;99.90;;;;;;5056799;28;20569;-72
2022/08/29 12:27:58;;;;;;;0.00;0.00;;;23.20;99.90;;;;;;4970803;28;20856;-73
2022/08/29 12:30:27;;;;;;;0.00;0.00;;;23.20;99.90;;;;;;5037536;28;20844;-71
2022/08/29 12:33:08;;;;;;;0.00;0.00;;;23.20;99.90;;;;;;5056673;28;20487;-72
2022/08/29 12:36:00;;;;;;;0.00;0.00;;;23.00;99.90;;;;;;5058095;28;20455;-71
2022/08/29 12:38:37;;;;;;;0.00;0.00;;;22.90;99.90;;;;;;5063600;28;20888;-72
2022/08/29 12:41:32;;;;;;;0.00;0.00;;;22.80;99.90;;;;;;5064141;28;20636;-71
2022/08/29 12:44:02;;;;;;;0.00;0.00;;;22.60;99.90;;;;;;5038606;28;20568;-70
2022/08/29 12:46:35;;;;;;;0.00;0.00;;;22.60;99.90;;;;;;5037000;28;20428;-71
2022/08/29 12:49:13;;;;;;;0.00;0.00;;;22.60;99.90;;;;;;5037226;28;20483;-71
2022/08/29 12:51:42;;;;;;;0.00;0.00;;;22.50;99.90;;;;;;5037183;28;20493;-72
2022/08/29 12:54:12;;;;;;;0.00;0.00;;;22.50;99.90;;;;;;5036822;28;20436;-71
2022/08/29 12:56:51;;;;;;;0.00;0.00;;;22.50;99.90;;;;;;5057517;28;20889;-74
2022/08/29 12:59:20;;;;;;;0.00;0.00;;;22.40;99.90;;;;;;5054781;28;20792;-71
2022/08/29 13:01:50;;;;;;;0.00;0.00;;;22.40;99.90;;;;;;5050975;28;20652;-71
2022/08/29 13:04:25;;;;;;;0.00;0.00;;;22.40;99.90;;;;;;5045537;28;20443;-71
2022/08/29 13:07:04;;;;;;;0.00;0.00;;;22.30;99.90;;;;;;5049712;28;20437;-70
2022/08/29 13:09:34;;;;;;;0.00;0.00;;;22.20;99.90;;;;;;5045992;28;21174;-71
2022/08/29 13:12:15;;;;;;;0.00;0.00;;;22.20;99.90;;;;;;5048990;28;20499;-71
2022/08/29 13:14:53;;;;;;;0.00;0.00;;;22.10;99.90;;;;;;5055442;28;20971;-71
2022/08/29 13:17:23;;;;;;;0.00;0.00;;;22.10;99.90;;;;;;5062154;28;20610;-70
2022/08/29 13:20:28;;;;;;;0.00;0.00;;;22.20;99.90;;;;;;5059448;28;20473;-70
2022/08/29 13:23:15;;;;;;;0.00;0.00;;;22.30;99.90;;;;;;5048802;28;20682;-71
2022/08/29 13:25:53;;;;;;;0.00;0.00;;;22.20;99.90;;;;;;5043702;28;20434;-69